Time;durP1;ratioP1;P1;durP2;ratioP2;P2;SDS_P1;SDS_P2;PMS_P1;PMS_P2;Temp;Humidity;BMP_temperature;BMP_pressure;BME280_temperature;BME280_humidity;BME280_pressure;Samples;Min_cycle;Max_cycle;Signal;HPM_P1;HPM_P2
2023/03/01 00:00:39;;;;;;;21.63;11.40;;;;;;;-2.64;97.96;98952.41;5052273;28;20208;-79
2023/03/01 00:03:05;;;;;;;17.63;11.23;;;;;;;-2.63;98.47;98953.28;5052316;28;20208;-79
2023/03/01 00:05:32;;;;;;;21.03;12.10;;;;;;;-2.60;98.32;98958.44;5052424;28;20257;-79
2023/03/01 00:07:59;;;;;;;18.60;11.53;;;;;;;-2.57;98.29;98950.66;5051938;28;20232;-79
2023/03/01 00:10:27;;;;;;;18.50;11.60;;;;;;;-2.58;98.34;98957.56;5052205;28;20334;-79
2023/03/01 00:12:53;;;;;;;18.33;11.30;;;;;;;-2.63;98.16;98948.09;5052182;28;20216;-79
2023/03/01 00:15:19;;;;;;;18.87;11.07;;;;;;;-2.68;98.10;98955.03;5052286;28;20215;-79
2023/03/01 00:17:46;;;;;;;18.10;11.47;;;;;;;-2.67;98.42;98952.44;5051879;28;20228;-79
2023/03/01 00:20:13;;;;;;;19.33;11.60;;;;;;;-2.71;99.08;98945.53;5052339;28;20209;-79
2023/03/01 00:22:39;;;;;;;20.47;11.43;;;;;;;-2.72;98.99;98953.31;5051813;28;20701;-79
2023/03/01 00:25:06;;;;;;;22.17;12.10;;;;;;;-2.76;99.64;98951.63;5052023;28;20211;-79
2023/03/01 00:27:34;;;;;;;18.97;12.20;;;;;;;-2.73;99.43;98954.19;5051421;28;20254;-79
2023/03/01 00:30:00;;;;;;;17.57;11.03;;;;;;;-2.71;99.76;98955.03;5051934;28;20267;-79
2023/03/01 00:32:26;;;;;;;18.37;12.30;;;;;;;-2.68;99.45;98955.03;5051788;28;20203;-79
2023/03/01 00:34:56;;;;;;;18.47;11.90;;;;;;;-2.56;99.45;98955.84;5051628;28;20204;-78
2023/03/01 00:39:58;;;;;;;19.90;12.73;;;;;;;-2.35;98.55;98960.03;5050227;28;20224;-80
2023/03/01 00:42:25;;;;;;;20.97;12.40;;;;;;;-2.34;97.96;98952.25;5051859;28;20204;-80
2023/03/01 00:44:53;;;;;;;21.70;12.93;;;;;;;-2.38;97.95;98947.97;5051871;28;20211;-80
2023/03/01 00:47:19;;;;;;;21.63;12.40;;;;;;;-2.33;97.17;98948.78;5051547;28;20219;-81
2023/03/01 00:49:46;;;;;;;18.17;11.63;;;;;;;-2.33;96.70;98943.63;5051727;28;20250;-80
2023/03/01 00:52:12;;;;;;;19.60;12.17;;;;;;;-2.44;96.53;98942.81;5051692;28;20204;-80
2023/03/01 00:54:38;;;;;;;19.40;11.33;;;;;;;-2.60;96.91;98948.06;5051930;28;20211;-79
2023/03/01 00:57:05;;;;;;;21.13;12.73;;;;;;;-2.66;98.02;98953.28;5051024;28;20204;-79
2023/03/01 00:59:31;;;;;;;20.87;12.63;;;;;;;-2.70;98.33;98941.25;5051444;28;20713;-79
2023/03/01 01:01:59;;;;;;;20.13;12.63;;;;;;;-2.71;99.24;98950.72;5051708;28;20212;-79
2023/03/01 01:04:26;;;;;;;20.90;12.87;;;;;;;-2.65;99.11;98949.81;5051533;28;20277;-79
2023/03/01 01:06:52;;;;;;;20.47;12.97;;;;;;;-2.65;99.19;98942.06;5051533;28;20211;-79
2023/03/01 01:09:19;;;;;;;21.27;13.30;;;;;;;-2.62;99.09;98949.81;5051538;28;20246;-79
2023/03/01 01:11:46;;;;;;;22.23;13.20;;;;;;;-2.48;99.23;98940.25;5051847;28;20208;-79
2023/03/01 01:14:12;;;;;;;24.27;13.20;;;;;;;-2.36;99.38;98948.84;5051738;28;20215;-79
2023/03/01 01:16:39;;;;;;;23.60;13.90;;;;;;;-2.19;98.58;98949.59;5051090;28;20214;-79
2023/03/01 01:19:07;;;;;;;21.10;12.37;;;;;;;-2.30;98.10;98947.94;5051398;28;20224;-79
2023/03/01 01:21:34;;;;;;;22.20;12.67;;;;;;;-2.00;98.12;98937.38;5051508;28;20204;-79
2023/03/01 01:24:01;;;;;;;21.07;13.03;;;;;;;-1.81;96.46;98933.78;5051487;28;20679;-79
2023/03/01 01:26:29;;;;;;;21.60;13.23;;;;;;;-1.70;95.79;98926.78;5051352;28;20552;-79
2023/03/01 01:28:56;;;;;;;19.73;13.23;;;;;;;-1.64;94.58;98917.22;5051649;28;20606;-79
2023/03/01 01:31:23;;;;;;;21.33;12.83;;;;;;;-1.72;94.32;98920.75;5051602;28;20234;-79
2023/03/01 01:33:50;;;;;;;20.50;13.27;;;;;;;-1.82;93.95;98916.50;5051637;28;20635;-80
2023/03/01 01:36:18;;;;;;;20.83;12.67;;;;;;;-1.89;94.25;98920.03;5051518;28;20208;-80
2023/03/01 01:38:44;;;;;;;18.10;11.73;;;;;;;-1.86;95.03;98920.00;5051201;28;20259;-80
2023/03/01 01:41:12;;;;;;;20.00;12.90;;;;;;;-1.84;94.40;98913.09;5051265;28;20209;-80
2023/03/01 01:43:41;;;;;;;20.03;12.07;;;;;;;-2.00;95.23;98908.88;5051065;28;20205;-81
2023/03/01 01:46:17;;;;;;;21.67;12.27;;;;;;;-2.16;95.46;98902.97;5050727;28;20212;-79
2023/03/01 01:48:47;;;;;;;22.53;13.20;;;;;;;-2.22;95.79;98905.59;5051372;28;20228;-80
2023/03/01 01:51:16;;;;;;;22.03;12.47;;;;;;;-2.22;96.21;98905.59;5051204;28;20258;-79
2023/03/01 01:53:49;;;;;;;20.17;13.03;;;;;;;-2.00;96.01;98903.69;5051100;28;20212;-79
2023/03/01 01:56:17;;;;;;;20.73;12.73;;;;;;;-1.85;95.80;98895.81;5050759;28;20209;-79
2023/03/01 01:58:47;;;;;;;23.80;12.83;;;;;;;-1.79;95.21;98893.19;5050806;28;20238;-79
2023/03/01 02:01:13;;;;;;;19.37;12.07;;;;;;;-1.76;95.23;98896.59;5051227;28;20212;-79
2023/03/01 02:03:43;;;;;;;20.83;12.93;;;;;;;-1.74;94.90;98883.63;5051134;28;20216;-79
2023/03/01 02:06:18;;;;;;;21.20;12.63;;;;;;;-1.58;94.51;98893.84;5050619;28;20204;-79
2023/03/01 02:08:47;;;;;;;20.37;13.33;;;;;;;-1.49;93.89;98890.28;5052118;28;20348;-79
2023/03/01 02:11:15;;;;;;;19.80;12.13;;;;;;;-1.50;93.26;98891.16;5054619;28;20254;-79
2023/03/01 02:13:43;;;;;;;19.63;12.17;;;;;;;-1.38;93.13;98871.16;5054905;28;20212;-79
2023/03/01 02:16:11;;;;;;;22.57;13.13;;;;;;;-1.22;91.65;98866.69;5054105;28;20208;-79
2023/03/01 02:18:39;;;;;;;22.97;13.97;;;;;;;-1.30;90.94;98865.91;5054546;28;20251;-79
2023/03/01 02:21:26;;;;;;;21.67;12.97;;;;;;;-1.23;90.95;98863.22;5054371;28;20216;-79
2023/03/01 02:23:56;;;;;;;20.73;12.80;;;;;;;-1.11;90.49;98851.84;5067165;28;20247;-79
2023/03/01 02:26:31;;;;;;;22.77;13.07;;;;;;;-1.04;89.31;98849.16;5073778;28;20623;-79
2023/03/01 02:28:59;;;;;;;19.47;12.27;;;;;;;-1.01;89.05;98843.94;5072090;28;20232;-79
2023/03/01 02:34:18;;;;;;;18.90;12.50;;;;;;;-0.98;88.92;98832.66;5049830;28;20207;-79
2023/03/01 02:36:48;;;;;;;21.77;12.67;;;;;;;-0.99;89.82;98836.16;5071524;28;20212;-80
2023/03/01 02:39:18;;;;;;;20.70;13.30;;;;;;;-0.91;89.39;98836.91;5060117;28;20255;-79
2023/03/01 02:41:47;;;;;;;20.57;12.23;;;;;;;-0.91;89.34;98829.97;5055029;28;20214;-80
2023/03/01 02:44:15;;;;;;;19.60;12.80;;;;;;;-0.95;90.42;98827.41;5054827;28;20219;-80
2023/03/01 02:46:48;;;;;;;20.27;12.73;;;;;;;-0.99;90.61;98826.59;5054481;28;20208;-80
2023/03/01 02:49:25;;;;;;;24.43;13.27;;;;;;;-1.04;91.56;98828.41;5054689;28;20229;-80
2023/03/01 02:52:15;;;;;;;20.47;12.63;;;;;;;-1.01;92.80;98824.91;5054535;28;20204;-79
2023/03/01 02:54:47;;;;;;;21.90;13.53;;;;;;;-0.97;92.75;98832.66;5054591;28;20215;-79
2023/03/01 02:57:14;;;;;;;21.67;12.83;;;;;;;-0.89;93.15;98827.34;5054547;28;20230;-79
2023/03/01 02:59:44;;;;;;;21.03;12.93;;;;;;;-0.84;93.38;98835.94;5054520;28;20619;-80
2023/03/01 03:02:35;;;;;;;21.27;13.93;;;;;;;-0.89;92.91;98827.34;5054807;28;20212;-79
2023/03/01 03:05:03;;;;;;;23.47;12.90;;;;;;;-0.83;93.86;98829.84;5054695;28;20224;-79
2023/03/01 03:07:29;;;;;;;21.43;13.50;;;;;;;-0.81;94.14;98825.53;5054050;28;20209;-81
2023/03/01 03:09:56;;;;;;;23.33;13.47;;;;;;;-0.80;94.02;98820.28;5054349;28;20570;-79
2023/03/01 03:12:22;;;;;;;24.80;14.03;;;;;;;-0.81;94.09;98818.59;5054512;28;20225;-81
2023/03/01 03:14:50;;;;;;;22.03;13.90;;;;;;;-0.78;93.79;98817.69;5054428;28;20217;-79
2023/03/01 03:17:16;;;;;;;23.00;13.80;;;;;;;-0.82;94.16;98811.69;5053549;28;20211;-83
2023/03/01 03:19:45;;;;;;;24.50;14.67;;;;;;;-0.85;94.23;98813.47;5053611;28;20228;-79
2023/03/01 03:22:11;;;;;;;24.20;14.47;;;;;;;-0.83;94.38;98809.09;5054285;28;20610;-79
2023/03/01 03:24:38;;;;;;;21.63;13.83;;;;;;;-0.76;94.03;98800.34;5054435;28;20207;-79
2023/03/01 03:27:05;;;;;;;21.73;13.43;;;;;;;-0.69;93.74;98799.41;5053782;28;20254;-79
2023/03/01 03:29:31;;;;;;;21.50;13.80;;;;;;;-0.67;93.65;98808.03;5054257;28;20543;-78
2023/03/01 03:32:00;;;;;;;24.07;13.77;;;;;;;-0.67;93.19;98805.41;5053755;28;20231;-79
2023/03/01 03:34:26;;;;;;;22.70;13.37;;;;;;;-0.62;92.46;98801.03;5054022;28;20205;-79
2023/03/01 03:36:56;;;;;;;24.23;13.37;;;;;;;-0.54;91.74;98799.16;5053342;28;20675;-79
2023/03/01 03:39:23;;;;;;;23.87;14.07;;;;;;;-0.51;90.91;98799.97;5053619;28;20287;-79
2023/03/01 03:41:49;;;;;;;21.27;13.33;;;;;;;-0.52;91.32;98797.41;5053501;28;20201;-79
2023/03/01 03:44:16;;;;;;;20.40;13.00;;;;;;;-0.48;90.90;98799.94;5053540;28;20679;-79
2023/03/01 03:46:42;;;;;;;22.10;13.87;;;;;;;-0.53;90.55;98800.88;5053069;28;20211;-79
2023/03/01 03:49:10;;;;;;;19.87;14.00;;;;;;;-0.53;91.12;98800.88;5053257;28;20235;-79
2023/03/01 03:51:36;;;;;;;24.63;14.40;;;;;;;-0.51;91.42;98793.94;5053326;28;20598;-79
2023/03/01 03:54:03;;;;;;;21.03;13.43;;;;;;;-0.42;91.14;98788.59;5053442;28;20214;-80
2023/03/01 03:56:29;;;;;;;19.97;12.93;;;;;;;-0.35;90.24;98790.22;5052849;28;20693;-79
2023/03/01 03:58:56;;;;;;;21.60;12.57;;;;;;;-0.33;89.71;98778.94;5053145;28;20573;-79
2023/03/01 04:01:23;;;;;;;21.87;13.43;;;;;;;-0.36;91.00;98779.00;5053078;28;20209;-79
2023/03/01 04:03:54;;;;;;;24.37;13.83;;;;;;;-0.36;90.84;98778.13;5052975;28;20726;-79
2023/03/01 04:06:22;;;;;;;22.80;12.90;;;;;;;-0.36;90.19;98772.91;5052492;28;20223;-79
2023/03/01 04:08:50;;;;;;;20.97;13.03;;;;;;;-0.32;88.74;98772.84;5052948;28;20238;-79
2023/03/01 04:11:29;;;;;;;20.73;12.80;;;;;;;-0.35;88.78;98766.84;5052529;28;20229;-79
2023/03/01 04:13:57;;;;;;;21.00;12.20;;;;;;;-0.31;88.02;98766.75;5052941;28;20212;-79
2023/03/01 04:16:27;;;;;;;24.00;13.77;;;;;;;-0.24;87.93;98760.59;5052528;28;20210;-79
2023/03/01 04:18:59;;;;;;;22.37;13.17;;;;;;;-0.22;87.41;98760.56;5053195;28;20229;-79
2023/03/01 04:21:27;;;;;;;22.20;14.33;;;;;;;-0.20;87.42;98753.63;5053006;28;20690;-79
2023/03/01 04:23:53;;;;;;;20.70;13.77;;;;;;;-0.23;87.17;98759.72;5053040;28;20213;-79
2023/03/01 04:26:20;;;;;;;20.47;13.20;;;;;;;-0.28;88.47;98762.38;5053344;28;20209;-79
2023/03/01 04:28:49;;;;;;;21.90;13.40;;;;;;;-0.30;89.55;98768.50;5052933;28;20718;-79
2023/03/01 04:31:18;;;;;;;20.30;13.23;;;;;;;-0.37;90.51;98766.03;5052264;28;20237;-79
2023/03/01 04:33:46;;;;;;;19.07;12.53;;;;;;;-0.36;91.54;98767.72;5053073;28;20296;-79
2023/03/01 04:36:14;;;;;;;20.13;13.70;;;;;;;-0.35;90.80;98765.13;5052812;28;20214;-79
2023/03/01 04:38:47;;;;;;;21.63;13.87;;;;;;;-0.35;91.51;98769.44;5052663;28;20242;-79
2023/03/01 04:41:15;;;;;;;22.97;13.63;;;;;;;-0.36;91.46;98767.72;5052631;28;20208;-79
2023/03/01 04:43:41;;;;;;;20.73;13.50;;;;;;;-0.37;92.08;98774.66;5053151;28;20678;-79
2023/03/01 04:46:11;;;;;;;22.90;13.73;;;;;;;-0.27;91.61;98768.44;5052805;28;20613;-80
2023/03/01 04:48:39;;;;;;;22.27;14.30;;;;;;;-0.31;92.06;98771.13;5052795;28;20233;-79
2023/03/01 04:51:07;;;;;;;22.27;14.03;;;;;;;-0.33;91.99;98772.88;5052630;28;20230;-79
2023/03/01 04:53:35;;;;;;;23.63;14.60;;;;;;;-0.33;92.55;98780.69;5052574;28;20754;-79
2023/03/01 04:56:04;;;;;;;21.83;13.57;;;;;;;-0.36;92.81;98778.13;5052295;28;20204;-80
2023/03/01 04:58:31;;;;;;;21.10;12.87;;;;;;;-0.33;92.74;98768.53;5052507;28;20234;-79
2023/03/01 05:00:57;;;;;;;20.57;13.33;;;;;;;-0.28;92.02;98775.34;5052358;28;20205;-79
2023/03/01 05:03:24;;;;;;;22.80;13.40;;;;;;;-0.24;92.29;98773.59;5052493;28;20204;-79
2023/03/01 05:05:52;;;;;;;23.23;14.73;;;;;;;-0.26;90.94;98769.31;5052337;28;20236;-79
2023/03/01 05:08:20;;;;;;;21.70;13.70;;;;;;;-0.17;91.03;98769.13;5052263;28;20224;-80
2023/03/01 05:10:50;;;;;;;24.40;14.70;;;;;;;-0.18;89.72;98768.31;5051898;28;20599;-79
2023/03/01 05:13:21;;;;;;;21.07;14.10;;;;;;;-0.14;89.59;98763.91;5052176;28;20213;-79
2023/03/01 05:15:49;;;;;;;21.70;13.90;;;;;;;-0.18;89.53;98760.50;5052002;28;20233;-79
2023/03/01 05:18:15;;;;;;;21.97;13.50;;;;;;;-0.17;89.26;98761.34;5051575;28;20237;-79
2023/03/01 05:20:42;;;;;;;21.17;13.20;;;;;;;-0.19;89.43;98757.94;5051801;28;20288;-79
2023/03/01 05:23:08;;;;;;;23.87;14.30;;;;;;;-0.17;89.30;98763.94;5051777;28;20208;-79
2023/03/01 05:25:39;;;;;;;22.73;14.17;;;;;;;-0.20;89.25;98753.63;5051733;28;20233;-79
2023/03/01 05:28:07;;;;;;;20.80;13.33;;;;;;;-0.23;89.97;98756.25;5051599;28;20231;-79
2023/03/01 05:30:36;;;;;;;21.97;12.83;;;;;;;-0.24;89.89;98751.94;5051605;28;20228;-79
2023/03/01 05:33:03;;;;;;;21.20;14.10;;;;;;;-0.19;89.54;98750.97;5051752;28;20208;-80
2023/03/01 05:35:32;;;;;;;20.97;13.30;;;;;;;-0.26;88.97;98753.72;5051646;28;20205;-79
2023/03/01 05:37:58;;;;;;;21.73;13.70;;;;;;;-0.26;90.10;98758.91;5051753;28;20280;-79
2023/03/01 05:40:25;;;;;;;21.37;13.40;;;;;;;-0.26;89.67;98764.94;5052127;28;20226;-80
2023/03/01 05:42:54;;;;;;;21.60;13.90;;;;;;;-0.26;89.80;98761.50;5053482;28;20213;-79
2023/03/01 05:45:21;;;;;;;21.03;13.20;;;;;;;-0.26;89.76;98758.91;5055948;28;20200;-79
2023/03/01 05:47:50;;;;;;;21.80;14.00;;;;;;;-0.28;90.42;98757.19;5055563;28;20233;-79
2023/03/01 05:50:19;;;;;;;23.53;13.13;;;;;;;-0.22;90.27;98761.44;5055387;28;20209;-80
2023/03/01 05:52:47;;;;;;;22.67;14.07;;;;;;;-0.16;89.96;98771.72;5056011;28;20567;-79
2023/03/01 05:55:13;;;;;;;23.33;13.93;;;;;;;-0.17;89.21;98763.06;5055761;28;20540;-79
2023/03/01 05:57:40;;;;;;;21.80;14.57;;;;;;;-0.13;88.74;98756.94;5055576;28;20227;-79
2023/03/01 06:00:08;;;;;;;25.27;15.80;;;;;;;-0.17;88.88;98753.56;5055410;28;20581;-78
2023/03/01 06:02:35;;;;;;;22.37;14.20;;;;;;;-0.16;88.35;98751.78;5055459;28;20208;-79
2023/03/01 06:05:03;;;;;;;23.50;14.77;;;;;;;-0.16;88.87;98738.78;5055378;28;20223;-79
2023/03/01 06:07:29;;;;;;;22.57;13.90;;;;;;;-0.13;88.72;98734.44;5055261;28;20267;-79
2023/03/01 06:09:56;;;;;;;22.47;13.80;;;;;;;-0.11;88.11;98746.53;5055411;28;20217;-79
2023/03/01 06:12:22;;;;;;;23.20;14.73;;;;;;;-0.12;88.43;98752.59;5055520;28;20589;-79
2023/03/01 06:14:49;;;;;;;22.83;14.00;;;;;;;-0.12;89.44;98756.03;5055384;28;20211;-79
2023/03/01 06:17:15;;;;;;;22.13;13.83;;;;;;;-0.13;89.57;98758.66;5054814;28;20214;-79
2023/03/01 06:19:42;;;;;;;26.77;13.77;;;;;;;-0.14;89.45;98754.34;5055069;28;20719;-80
2023/03/01 06:22:10;;;;;;;22.87;13.43;;;;;;;-0.13;88.87;98746.53;5055149;28;20205;-81
2023/03/01 06:24:36;;;;;;;24.23;13.97;;;;;;;-0.18;89.63;98755.31;5055149;28;20209;-80
2023/03/01 06:27:03;;;;;;;24.63;14.23;;;;;;;-0.13;87.92;98746.53;5054378;28;20208;-79
2023/03/01 06:29:29;;;;;;;20.93;14.03;;;;;;;-0.12;87.63;98743.06;5054834;28;20389;-80
2023/03/01 06:31:56;;;;;;;21.60;14.20;;;;;;;-0.14;86.91;98740.53;5054395;28;20233;-80
2023/03/01 06:34:22;;;;;;;24.73;13.53;;;;;;;-0.30;87.66;98731.28;5055036;28;20221;-80
2023/03/01 06:36:49;;;;;;;24.53;14.40;;;;;;;-0.41;87.15;98747.03;5054390;28;20204;-81
2023/03/01 06:39:17;;;;;;;24.87;14.83;;;;;;;-0.50;88.16;98743.72;5068423;22;20236;-79
2023/03/01 06:41:43;;;;;;;29.13;15.80;;;;;;;-0.61;88.58;98745.63;5053986;28;20258;-79
2023/03/01 06:44:10;;;;;;;26.87;14.90;;;;;;;-0.70;88.81;98750.94;5053760;28;20220;-79
2023/03/01 06:46:37;;;;;;;29.77;14.93;;;;;;;-0.71;89.44;98754.44;5053510;28;20562;-79
2023/03/01 06:49:04;;;;;;;24.43;15.00;;;;;;;-0.83;89.70;98758.06;5053875;28;20228;-79
2023/03/01 06:51:33;;;;;;;21.07;13.70;;;;;;;-0.83;90.92;98765.00;5053753;28;20275;-79
2023/03/01 06:54:00;;;;;;;27.03;15.57;;;;;;;-0.83;91.28;98762.41;5052697;28;20204;-79
2023/03/01 06:56:28;;;;;;;25.37;14.33;;;;;;;-0.79;90.71;98770.13;5053947;28;20214;-79
2023/03/01 06:58:54;;;;;;;26.93;14.57;;;;;;;-0.71;91.52;98764.81;5053150;28;20228;-79
2023/03/01 07:01:20;;;;;;;27.50;14.50;;;;;;;-0.71;91.26;98764.81;5053517;28;20820;-79
2023/03/01 07:03:47;;;;;;;26.73;15.00;;;;;;;-0.67;90.54;98766.50;5053507;28;20212;-79
2023/03/01 07:06:13;;;;;;;23.33;15.10;;;;;;;-0.69;90.45;98752.69;5053213;28;20209;-81
2023/03/01 07:08:40;;;;;;;24.70;14.27;;;;;;;-0.68;90.67;98749.22;5053358;28;20230;-79
2023/03/01 07:11:06;;;;;;;20.57;14.13;;;;;;;-0.63;90.28;98747.41;5053262;28;20225;-82
2023/03/01 07:13:34;;;;;;;22.70;13.80;;;;;;;-0.62;90.12;98749.13;5053362;28;20574;-81
2023/03/01 07:16:01;;;;;;;26.40;15.10;;;;;;;-0.55;90.40;98750.72;5053641;28;20220;-81
2023/03/01 07:18:28;;;;;;;24.00;15.00;;;;;;;-0.58;90.14;98745.56;5053023;28;20232;-79
2023/03/01 07:20:54;;;;;;;25.80;14.77;;;;;;;-0.48;89.68;98741.97;5053235;28;20210;-79
2023/03/01 07:23:21;;;;;;;26.37;14.97;;;;;;;-0.44;89.64;98746.22;5052918;28;20212;-80
2023/03/01 07:25:52;;;;;;;22.87;13.93;;;;;;;-0.41;90.10;98743.56;5053019;28;20218;-80
2023/03/01 07:28:19;;;;;;;25.30;14.93;;;;;;;-0.39;90.63;98742.66;5052808;28;20225;-80
2023/03/01 07:30:46;;;;;;;24.10;14.40;;;;;;;-0.26;90.08;98740.75;5053020;28;20213;-79
2023/03/01 07:33:13;;;;;;;25.53;15.07;;;;;;;-0.22;89.44;98736.28;5052913;28;20239;-80
2023/03/01 07:35:39;;;;;;;24.97;15.23;;;;;;;-0.12;89.28;98734.44;5052880;28;20214;-79
2023/03/01 07:38:06;;;;;;;24.50;15.20;;;;;;;-0.06;87.71;98714.38;5050903;28;20210;-81
2023/03/01 07:40:33;;;;;;;27.83;15.53;;;;;;;-0.02;87.03;98712.56;5051219;28;20212;-82
2023/03/01 07:43:01;;;;;;;25.77;15.00;;;;;;;0.02;87.39;98715.06;5051885;28;20699;-82
2023/03/01 07:45:28;;;;;;;25.97;14.43;;;;;;;0.08;87.22;98709.78;5052027;28;20217;-81
2023/03/01 07:47:56;;;;;;;28.00;15.00;;;;;;;0.13;86.88;98715.75;5048696;28;20209;-81
2023/03/01 07:50:23;;;;;;;27.63;14.73;;;;;;;0.17;86.71;98720.00;5043351;28;20217;-82
2023/03/01 07:52:51;;;;;;;24.03;14.47;;;;;;;0.20;85.67;98714.72;5051568;28;20243;-82
2023/03/01 07:55:17;;;;;;;24.30;14.77;;;;;;;0.27;85.13;98705.97;5049595;28;20213;-82
2023/03/01 07:57:44;;;;;;;23.43;14.37;;;;;;;0.34;84.77;98704.94;5051262;28;20685;-82
2023/03/01 08:00:13;;;;;;;23.17;15.10;;;;;;;0.41;84.05;98697.88;5052099;28;20230;-81
2023/03/01 08:02:41;;;;;;;24.93;14.33;;;;;;;0.49;83.98;98694.22;5052676;28;20234;-81
2023/03/01 08:05:09;;;;;;;22.23;13.60;;;;;;;0.53;82.93;98693.28;5052135;28;20214;-84
2023/03/01 08:07:36;;;;;;;25.97;15.00;;;;;;;0.61;82.82;98687.94;5052070;28;20240;-84
2023/03/01 08:10:03;;;;;;;22.77;14.27;;;;;;;0.64;81.63;98680.91;5052602;28;20235;-83
2023/03/01 08:12:29;;;;;;;24.63;14.47;;;;;;;0.72;81.50;98681.59;5052562;28;20229;-80
2023/03/01 08:14:56;;;;;;;22.67;14.60;;;;;;;0.78;81.64;98689.25;5050333;28;20641;-82
2023/03/01 08:17:23;;;;;;;25.93;14.57;;;;;;;0.82;81.23;98680.50;5051198;28;20210;-82
2023/03/01 08:19:50;;;;;;;24.83;14.13;;;;;;;0.86;79.80;98679.53;5052668;28;20234;-82
2023/03/01 08:22:18;;;;;;;23.97;14.47;;;;;;;0.87;79.58;98670.84;5070638;28;20206;-81
2023/03/01 08:24:44;;;;;;;26.40;15.60;;;;;;;0.99;80.44;98683.56;5071383;28;20234;-84
2023/03/01 08:27:11;;;;;;;25.67;14.90;;;;;;;1.01;79.41;98676.59;5070907;28;20206;-82
2023/03/01 08:29:38;;;;;;;22.50;14.43;;;;;;;1.12;80.41;98689.38;5070956;28;20763;-85
2023/03/01 08:32:05;;;;;;;27.90;14.93;;;;;;;1.26;79.61;98682.94;5051098;28;20234;-82
2023/03/01 08:34:32;;;;;;;21.73;14.87;;;;;;;1.32;78.51;98671.50;5030926;28;20210;-81
2023/03/01 08:36:58;;;;;;;23.47;14.60;;;;;;;1.39;78.33;98667.88;5031105;28;20224;-79
2023/03/01 08:39:26;;;;;;;23.57;14.60;;;;;;;1.44;76.67;98664.28;5031025;28;20247;-79
2023/03/01 08:41:53;;;;;;;23.00;14.70;;;;;;;1.46;77.20;98659.88;5031218;28;20337;-78
2023/03/01 08:44:20;;;;;;;22.93;14.23;;;;;;;1.60;76.34;98662.13;5030326;28;20211;-79
2023/03/01 08:46:49;;;;;;;24.87;14.87;;;;;;;1.66;75.96;98668.03;5030426;28;20220;-79
2023/03/01 08:49:18;;;;;;;23.23;14.83;;;;;;;1.69;75.33;98649.72;5030454;28;20229;-80
2023/03/01 08:51:46;;;;;;;24.93;15.00;;;;;;;1.78;76.22;98661.66;5030271;28;20250;-80
2023/03/01 08:54:15;;;;;;;21.70;13.80;;;;;;;1.85;74.74;98648.41;5028745;28;20797;-80
2023/03/01 08:56:43;;;;;;;26.57;14.47;;;;;;;1.86;74.05;98647.53;5027622;28;20284;-80
2023/03/01 08:59:10;;;;;;;25.57;14.63;;;;;;;1.85;73.23;98635.38;5030657;28;20661;-80
2023/03/01 09:01:37;;;;;;;25.20;15.30;;;;;;;1.91;72.48;98637.81;5029627;28;20223;-80
2023/03/01 09:04:03;;;;;;;24.23;15.33;;;;;;;1.98;73.11;98628.97;5031764;28;20214;-80
2023/03/01 09:06:31;;;;;;;23.77;14.47;;;;;;;2.05;73.45;98630.50;5050462;28;20238;-80
2023/03/01 09:08:58;;;;;;;25.10;15.47;;;;;;;2.08;71.68;98622.59;5051401;28;20276;-81
2023/03/01 09:11:24;;;;;;;24.03;15.07;;;;;;;2.10;71.46;98625.16;5051104;28;20219;-80
2023/03/01 09:13:52;;;;;;;26.00;15.47;;;;;;;2.18;71.34;98611.00;5051448;28;20217;-79
2023/03/01 09:16:21;;;;;;;24.30;14.40;;;;;;;2.26;70.98;98614.25;5050544;28;20210;-79
2023/03/01 09:18:50;;;;;;;23.80;14.73;;;;;;;2.32;71.14;98608.00;5051033;28;20573;-79
2023/03/01 09:21:18;;;;;;;24.97;15.03;;;;;;;2.39;70.70;98605.16;5051369;28;20216;-80
2023/03/01 09:23:46;;;;;;;23.70;14.27;;;;;;;2.45;71.24;98604.16;5051277;28;20217;-79
2023/03/01 09:26:16;;;;;;;23.27;14.50;;;;;;;2.56;69.82;98595.09;5050822;28;20213;-79
2023/03/01 09:28:44;;;;;;;23.47;15.40;;;;;;;2.58;68.91;98585.44;5049644;28;20222;-80
2023/03/01 09:31:13;;;;;;;23.77;15.27;;;;;;;2.69;69.13;98587.75;5049422;28;20222;-80
2023/03/01 09:33:41;;;;;;;27.20;14.77;;;;;;;2.77;67.79;98580.53;5050275;28;20636;-81
2023/03/01 09:36:11;;;;;;;22.47;14.67;;;;;;;2.81;67.59;98582.16;5050125;28;20206;-80
2023/03/01 09:38:38;;;;;;;25.13;15.47;;;;;;;2.90;67.55;98580.09;5043436;28;20232;-80
2023/03/01 09:41:11;;;;;;;23.67;14.20;;;;;;;2.92;67.64;98580.91;5032461;28;20213;-80
2023/03/01 09:43:46;;;;;;;24.40;15.37;;;;;;;3.02;67.63;98577.09;5030731;28;20211;-81
2023/03/01 09:46:16;;;;;;;23.27;14.90;;;;;;;3.19;66.81;98569.53;5030242;28;20212;-80
2023/03/01 09:48:46;;;;;;;22.83;14.87;;;;;;;3.21;65.85;98562.53;5030224;28;20214;-77
2023/03/01 09:51:18;;;;;;;24.07;15.13;;;;;;;3.22;65.60;98574.69;5031104;28;20677;-84
2023/03/01 09:53:45;;;;;;;23.80;14.83;;;;;;;3.26;65.83;98571.06;5030972;28;20645;-78
2023/03/01 09:56:18;;;;;;;24.53;14.90;;;;;;;3.38;65.76;98570.66;5030997;28;20209;-78
2023/03/01 09:58:52;;;;;;;21.40;14.37;;;;;;;3.49;65.35;98562.44;5031000;28;20295;-80
2023/03/01 10:01:32;;;;;;;20.83;13.80;;;;;;;3.50;64.50;98551.94;5031113;28;20309;-80
2023/03/01 10:04:11;;;;;;;21.57;14.60;;;;;;;3.58;65.08;98554.28;5030777;28;20276;-80
2023/03/01 10:06:39;;;;;;;22.07;14.47;;;;;;;3.68;64.12;98547.84;5030689;28;20216;-79
2023/03/01 10:09:10;;;;;;;21.80;13.97;;;;;;;3.74;64.46;98547.63;5030865;28;20252;-79
2023/03/01 10:11:39;;;;;;;23.77;15.63;;;;;;;3.81;63.45;98539.50;5030866;28;20222;-79
2023/03/01 10:14:14;;;;;;;20.80;13.77;;;;;;;3.87;64.15;98528.84;5030648;28;20727;-79
2023/03/01 10:16:49;;;;;;;22.10;14.07;;;;;;;3.88;63.53;98525.31;5030437;28;20221;-80
2023/03/01 10:19:21;;;;;;;22.13;14.07;;;;;;;4.08;63.83;98525.41;5030828;28;20237;-80
2023/03/01 10:21:50;;;;;;;21.27;14.27;;;;;;;4.16;63.17;98519.91;5030954;28;20210;-80
2023/03/01 10:24:21;;;;;;;22.47;15.00;;;;;;;4.24;60.99;98500.41;5030552;28;20215;-79
2023/03/01 10:26:56;;;;;;;22.80;14.07;;;;;;;4.30;62.34;98509.75;5030615;28;20246;-79
2023/03/01 10:29:27;;;;;;;21.73;13.83;;;;;;;4.42;62.03;98497.06;5031441;28;20234;-79
2023/03/01 10:31:55;;;;;;;21.03;14.53;;;;;;;4.51;61.44;98499.31;5034769;28;20208;-79
2023/03/01 10:34:28;;;;;;;20.63;13.83;;;;;;;4.69;62.01;98500.34;5034281;28;20264;-79
2023/03/01 10:36:58;;;;;;;19.93;13.80;;;;;;;4.73;60.09;98474.00;5034061;28;20574;-80
2023/03/01 10:39:26;;;;;;;24.07;14.70;;;;;;;4.73;60.54;98481.84;5034040;28;20266;-79
2023/03/01 10:41:56;;;;;;;22.00;13.93;;;;;;;4.88;61.37;98480.38;5033997;28;20208;-79
2023/03/01 10:44:38;;;;;;;21.97;13.93;;;;;;;5.20;60.37;98465.00;5034151;28;20204;-79
2023/03/01 10:47:14;;;;;;;18.57;13.37;;;;;;;5.49;59.58;98469.84;5034136;28;20295;-79
2023/03/01 10:49:53;;;;;;;20.97;13.17;;;;;;;5.58;58.41;98464.19;5033827;28;20239;-79
2023/03/01 10:52:22;;;;;;;20.77;13.20;;;;;;;5.68;58.57;98462.84;5033741;28;20228;-82
2023/03/01 10:54:54;;;;;;;17.47;12.23;;;;;;;5.74;57.58;98452.09;5033900;28;20223;-81
2023/03/01 10:57:33;;;;;;;18.37;12.90;;;;;;;5.77;56.65;98454.59;5033606;28;20209;-81
2023/03/01 11:00:17;;;;;;;19.93;12.50;;;;;;;5.79;57.42;98451.88;5033637;28;20235;-78
2023/03/01 11:02:48;;;;;;;19.30;12.83;;;;;;;5.86;56.84;98445.50;5033652;28;20198;-77
2023/03/01 11:05:20;;;;;;;17.93;12.70;;;;;;;5.92;57.14;98438.19;5033960;28;20200;-77
2023/03/01 11:07:51;;;;;;;16.83;13.33;;;;;;;6.00;56.01;98428.19;5033550;28;20617;-76
2023/03/01 11:10:20;;;;;;;21.00;13.43;;;;;;;6.02;56.65;98415.84;5033403;28;20296;-79
2023/03/01 11:12:46;;;;;;;18.93;13.10;;;;;;;6.04;56.20;98415.78;5033486;28;20233;-79
2023/03/01 11:15:23;;;;;;;20.90;12.47;;;;;;;6.00;55.94;98408.97;5033266;28;20213;-78
2023/03/01 11:17:51;;;;;;;18.57;12.53;;;;;;;6.12;56.61;98414.47;5032984;28;20218;-78
2023/03/01 11:20:26;;;;;;;16.83;11.97;;;;;;;6.30;56.09;98397.88;5033475;28;20243;-78
2023/03/01 11:22:55;;;;;;;18.53;11.93;;;;;;;6.45;55.02;98401.53;5033447;28;20262;-77
2023/03/01 11:25:25;;;;;;;18.07;12.17;;;;;;;6.47;55.87;98402.31;5033168;28;20216;-77
2023/03/01 11:27:54;;;;;;;18.83;12.57;;;;;;;6.52;54.97;98388.03;5033215;28;20208;-78
2023/03/01 11:30:24;;;;;;;18.33;12.03;;;;;;;6.60;55.14;98396.38;5033233;28;20213;-78